Time;durP1;ratioP1;P1;durP2;ratioP2;P2;SDS_P1;SDS_P2;PMS_P1;PMS_P2;Temp;Humidity;BMP_temperature;BMP_pressure;BME280_temperature;BME280_humidity;BME280_pressure;Samples;Min_cycle;Max_cycle;Signal;HPM_P1;HPM_P2
2022/08/13 00:00:22;;;;;;;;;;;;;;;;;;4891048;29;19931;-68
2022/08/13 00:02:51;;;;;;;;;;;;;;;;;;4889814;29;20346;-68
2022/08/13 00:05:22;;;;;;;;;;;;;;;;;;4890832;29;19967;-68
2022/08/13 00:08:09;;;;;;;;;;;;;;;;;;4890932;29;19934;-68
2022/08/13 00:10:36;;;;;;;;;;;;;;;;;;4891998;29;19931;-68
2022/08/13 00:13:04;;;;;;;;;;;;;;;;;;4891135;29;20188;-69
2022/08/13 00:15:32;;;;;;;;;;;;;;;;;;4873398;29;19927;-68
2022/08/13 00:17:59;;;;;;;;;;;;;;;;;;4888756;29;19935;-67
2022/08/13 00:20:29;;;;;;;;;;;;;;;;;;4890424;29;19975;-68
2022/08/13 00:22:58;;;;;;;;;;;;;;;;;;4890751;29;19939;-68
2022/08/13 00:25:27;;;;;;;;;;;;;;;;;;4890498;29;20049;-68
2022/08/13 00:28:09;;;;;;;;;;;;;;;;;;4890015;29;19938;-68
2022/08/13 00:30:38;;;;;;;;;;;;;;;;;;4889903;29;20026;-67
2022/08/13 00:33:05;;;;;;;;;;;;;;;;;;4890269;29;20443;-68
2022/08/13 00:35:36;;;;;;;;;;;;;;;;;;4890388;29;19927;-68
2022/08/13 00:38:07;;;;;;;;;;;;;;;;;;4889919;29;19931;-68
2022/08/13 00:40:35;;;;;;;;;;;;;;;;;;4889720;29;19935;-68
2022/08/13 00:43:02;;;;;;;;;;;;;;;;;;4889406;29;19962;-68
2022/08/13 00:45:32;;;;;;;;;;;;;;;;;;4889711;29;19931;-67
2022/08/13 00:50:45;;;;;;;;;;;;;;;;;;4889935;29;19936;-68
2022/08/13 00:53:16;;;;;;;;;;;;;;;;;;4889712;29;19931;-68
2022/08/13 00:55:45;;;;;;;;;;;;;;;;;;4890535;29;19934;-69
2022/08/13 00:58:16;;;;;;;;;;;;;;;;;;4889924;29;20308;-68
2022/08/13 01:00:46;;;;;;;;;;;;;;;;;;4889785;29;19931;-67
2022/08/13 01:03:13;;;;;;;;;;;;;;;;;;4890286;29;20309;-68
2022/08/13 01:05:43;;;;;;;;;;;;;;;;;;4889925;29;19939;-68
2022/08/13 01:08:10;;;;;;;;;;;;;;;;;;4889786;29;19986;-68
2022/08/13 01:10:40;;;;;;;;;;;;;;;;;;4890296;29;19932;-68
2022/08/13 01:13:11;;;;;;;;;;;;;;;;;;4890586;29;19938;-68
2022/08/13 01:15:40;;;;;;;;;;;;;;;;;;4901022;23;20416;-71
2022/08/13 01:18:21;;;;;;;;;;;;;;;;;;4872429;29;19939;-71
2022/08/13 01:20:48;;;;;;;;;;;;;;;;;;4871625;29;19936;-71
2022/08/13 01:23:16;;;;;;;;;;;;;;;;;;4872376;29;19931;-71
2022/08/13 01:25:44;;;;;;;;;;;;;;;;;;4886753;29;19932;-71
2022/08/13 01:28:21;;;;;;;;;;;;;;;;;;4885214;29;19938;-74
2022/08/13 01:30:50;;;;;;;;;;;;;;;;;;4872120;29;20026;-74
2022/08/13 01:33:17;;;;;;;;;;;;;;;;;;4872048;29;20776;-74
2022/08/13 01:35:45;;;;;;;;;;;;;;;;;;4871980;29;20296;-74
2022/08/13 01:38:13;;;;;;;;;;;;;;;;;;4871518;29;19931;-74
2022/08/13 01:40:40;;;;;;;;;;;;;;;;;;4885448;29;19931;-74
2022/08/13 01:43:08;;;;;;;;;;;;;;;;;;4872052;29;20315;-74
2022/08/13 01:45:48;;;;;;;;;;;;;;;;;;4881452;29;19932;-74
2022/08/13 01:51:06;;;;;;;;;;;;;;;;;;4871447;29;20436;-74
2022/08/13 01:53:38;;;;;;;;;;;;;;;;;;4872031;29;19971;-74
2022/08/13 01:56:07;;;;;;;;;;;;;;;;;;4871400;29;19954;-74
2022/08/13 01:58:47;;;;;;;;;;;;;;;;;;4884320;29;19963;-74
2022/08/13 02:01:34;;;;;;;;;;;;;;;;;;4871918;29;19975;-74
2022/08/13 02:04:10;;;;;;;;;;;;;;;;;;4871252;29;19932;-74
2022/08/13 02:06:39;;;;;;;;;;;;;;;;;;4870950;29;20030;-74
2022/08/13 02:09:07;;;;;;;;;;;;;;;;;;4869990;29;19963;-74
2022/08/13 02:11:49;;;;;;;;;;;;;;;;;;4870081;29;20412;-74
2022/08/13 02:14:17;;;;;;;;;;;;;;;;;;4876777;29;19928;-75
2022/08/13 02:16:45;;;;;;;;;;;;;;;;;;4874508;29;20392;-74
2022/08/13 02:19:13;;;;;;;;;;;;;;;;;;4875357;29;19928;-74
2022/08/13 02:21:45;;;;;;;;;;;;;;;;;;4875271;29;20356;-73
2022/08/13 02:24:13;;;;;;;;;;;;;;;;;;4875254;29;20396;-74
2022/08/13 02:26:47;;;;;;;;;;;;;;;;;;4888073;29;19932;-74
2022/08/13 02:29:22;;;;;;;;;;;;;;;;;;4874950;29;19931;-74
2022/08/13 02:31:50;;;;;;;;;;;;;;;;;;4889065;29;20402;-74
2022/08/13 02:34:32;;;;;;;;;;;;;;;;;;4874974;29;19939;-74
2022/08/13 02:37:00;;;;;;;;;;;;;;;;;;4875139;29;20261;-74
2022/08/13 02:39:48;;;;;;;;;;;;;;;;;;4874753;29;19931;-74
2022/08/13 02:42:15;;;;;;;;;;;;;;;;;;4874935;29;19932;-74
2022/08/13 02:44:47;;;;;;;;;;;;;;;;;;4888311;29;20046;-74
2022/08/13 02:47:17;;;;;;;;;;;;;;;;;;4875516;29;20072;-73
2022/08/13 02:49:44;;;;;;;;;;;;;;;;;;4874410;29;19935;-74
2022/08/13 02:52:13;;;;;;;;;;;;;;;;;;4875698;29;19975;-73
2022/08/13 02:54:40;;;;;;;;;;;;;;;;;;4873664;29;20018;-74
2022/08/13 02:57:11;;;;;;;;;;;;;;;;;;4874673;29;20096;-74
2022/08/13 02:59:38;;;;;;;;;;;;;;;;;;4874928;29;19935;-74
2022/08/13 03:02:28;;;;;;;;;;;;;;;;;;4886684;29;19931;-74
2022/08/13 03:04:55;;;;;;;;;;;;;;;;;;4888769;29;19928;-74
2022/08/13 03:07:22;;;;;;;;;;;;;;;;;;4874283;29;20000;-73
2022/08/13 03:09:50;;;;;;;;;;;;;;;;;;4874525;29;19943;-73
2022/08/13 03:12:17;;;;;;;;;;;;;;;;;;4873814;29;19928;-74
2022/08/13 03:14:44;;;;;;;;;;;;;;;;;;4873999;29;20333;-74
2022/08/13 03:17:12;;;;;;;;;;;;;;;;;;4873480;29;20184;-74
2022/08/13 03:19:49;;;;;;;;;;;;;;;;;;4874125;29;19927;-74
2022/08/13 03:22:17;;;;;;;;;;;;;;;;;;4874392;29;19928;-74
2022/08/13 03:24:44;;;;;;;;;;;;;;;;;;4873641;29;20404;-74
2022/08/13 03:27:12;;;;;;;;;;;;;;;;;;4887938;29;19931;-74
2022/08/13 03:29:39;;;;;;;;;;;;;;;;;;4874191;29;19931;-74
2022/08/13 03:32:27;;;;;;;;;;;;;;;;;;4873152;29;19986;-74
2022/08/13 03:34:56;;;;;;;;;;;;;;;;;;4874150;29;19932;-74
2022/08/13 03:37:24;;;;;;;;;;;;;;;;;;4878630;29;19992;-74
2022/08/13 03:39:52;;;;;;;;;;;;;;;;;;4894002;29;19931;-74
2022/08/13 03:42:19;;;;;;;;;;;;;;;;;;4880545;29;20456;-74
2022/08/13 03:44:56;;;;;;;;;;;;;;;;;;4887288;29;19928;-74
2022/08/13 03:47:24;;;;;;;;;;;;;;;;;;4899722;29;19927;-74
2022/08/13 03:49:56;;;;;;;;;;;;;;;;;;4921579;29;20065;-74
2022/08/13 03:52:24;;;;;;;;;;;;;;;;;;4914274;29;19931;-74
2022/08/13 03:55:00;;;;;;;;;;;;;;;;;;4898266;29;20430;-74
2022/08/13 03:57:28;;;;;;;;;;;;;;;;;;4893110;29;19943;-74
2022/08/13 03:59:55;;;;;;;;;;;;;;;;;;4906662;29;19934;-74
2022/08/13 04:02:40;;;;;;;;;;;;;;;;;;4892755;29;20014;-73
2022/08/13 04:05:11;;;;;;;;;;;;;;;;;;4890790;29;19931;-74
2022/08/13 04:07:39;;;;;;;;;;;;;;;;;;4891927;29;19931;-73
2022/08/13 04:10:08;;;;;;;;;;;;;;;;;;4891825;29;19984;-74
2022/08/13 04:12:36;;;;;;;;;;;;;;;;;;4890556;29;19931;-74
2022/08/13 04:15:03;;;;;;;;;;;;;;;;;;4882979;29;20026;-73
2022/08/13 04:17:31;;;;;;;;;;;;;;;;;;4880171;29;20312;-74
2022/08/13 04:20:00;;;;;;;;;;;;;;;;;;4873051;29;20125;-74
2022/08/13 04:22:27;;;;;;;;;;;;;;;;;;4873332;29;19935;-74
2022/08/13 04:24:55;;;;;;;;;;;;;;;;;;4873047;29;19987;-74
2022/08/13 04:27:22;;;;;;;;;;;;;;;;;;4872746;29;19927;-74
2022/08/13 04:29:51;;;;;;;;;;;;;;;;;;4872901;29;19971;-74
2022/08/13 04:32:19;;;;;;;;;;;;;;;;;;4873208;29;19934;-74
2022/08/13 04:34:51;;;;;;;;;;;;;;;;;;4872341;29;19950;-74
2022/08/13 04:37:19;;;;;;;;;;;;;;;;;;4872153;29;19928;-74
2022/08/13 04:39:48;;;;;;;;;;;;;;;;;;4871760;29;20033;-74
2022/08/13 04:42:36;;;;;;;;;;;;;;;;;;4871783;29;19939;-74
2022/08/13 04:45:03;;;;;;;;;;;;;;;;;;4872639;29;20304;-74
2022/08/13 04:47:38;;;;;;;;;;;;;;;;;;4903085;29;19931;-74
2022/08/13 04:50:05;;;;;;;;;;;;;;;;;;4905986;29;19939;-74
2022/08/13 04:52:36;;;;;;;;;;;;;;;;;;4905520;29;19931;-74
2022/08/13 04:55:03;;;;;;;;;;;;;;;;;;4905832;29;19927;-74
2022/08/13 04:57:31;;;;;;;;;;;;;;;;;;4905167;29;19995;-74
2022/08/13 05:00:20;;;;;;;;;;;;;;;;;;4891450;29;19931;-74
2022/08/13 05:02:47;;;;;;;;;;;;;;;;;;4891202;29;20052;-74
2022/08/13 05:05:14;;;;;;;;;;;;;;;;;;4889856;29;20314;-74
2022/08/13 05:07:47;;;;;;;;;;;;;;;;;;4890735;29;19955;-74
2022/08/13 05:10:14;;;;;;;;;;;;;;;;;;4890736;29;19935;-74
2022/08/13 05:12:42;;;;;;;;;;;;;;;;;;4891147;29;20301;-74
2022/08/13 05:15:13;;;;;;;;;;;;;;;;;;4881302;29;19985;-73
2022/08/13 05:18:00;;;;;;;;;;;;;;;;;;4874563;29;19942;-74
2022/08/13 05:20:28;;;;;;;;;;;;;;;;;;4871833;29;20315;-74
2022/08/13 05:23:01;;;;;;;;;;;;;;;;;;4872335;29;19938;-74
2022/08/13 05:25:49;;;;;;;;;;;;;;;;;;4871181;29;19936;-74
2022/08/13 05:28:37;;;;;;;;;;;;;;;;;;4867188;29;20405;-73
2022/08/13 05:31:04;;;;;;;;;;;;;;;;;;4886402;29;20311;-73
2022/08/13 05:33:32;;;;;;;;;;;;;;;;;;4872133;29;19960;-74
2022/08/13 05:36:10;;;;;;;;;;;;;;;;;;4872045;29;20301;-74
2022/08/13 05:38:58;;;;;;;;;;;;;;;;;;4884461;29;19931;-74
2022/08/13 05:41:25;;;;;;;;;;;;;;;;;;4886349;29;20370;-73
2022/08/13 05:43:53;;;;;;;;;;;;;;;;;;4872270;29;20470;-73
2022/08/13 05:46:21;;;;;;;;;;;;;;;;;;4884366;29;20316;-74
2022/08/13 05:48:56;;;;;;;;;;;;;;;;;;4886568;29;19955;-74
2022/08/13 05:51:25;;;;;;;;;;;;;;;;;;4874499;29;19969;-74
2022/08/13 05:53:54;;;;;;;;;;;;;;;;;;4874079;29;19931;-75
2022/08/13 05:56:42;;;;;;;;;;;;;;;;;;4884444;29;20028;-75
2022/08/13 06:03:24;;;;;;;;;;;;;;;;;;4872854;29;20020;-74
2022/08/13 06:05:02;;;;;;;;;;;;;;;;;;4871774;29;19967;-73
2022/08/13 06:07:29;;;;;;;;;;;;;;;;;;4871816;29;19980;-73
2022/08/13 06:09:57;;;;;;;;;;;;;;;;;;4871978;29;20055;-74
2022/08/13 06:12:25;;;;;;;;;;;;;;;;;;4870750;29;19932;-74
2022/08/13 06:15:06;;;;;;;;;;;;;;;;;;4871614;29;19984;-74
2022/08/13 06:17:35;;;;;;;;;;;;;;;;;;4881522;29;19934;-73
2022/08/13 06:22:53;;;;;;;;;;;;;;;;;;4909232;29;19931;-74
2022/08/13 06:25:21;;;;;;;;;;;;;;;;;;4909873;29;19978;-75
2022/08/13 06:27:49;;;;;;;;;;;;;;;;;;4909800;29;20538;-74
2022/08/13 06:30:25;;;;;;;;;;;;;;;;;;4909921;29;19931;-78
2022/08/13 06:32:57;;;;;;;;;;;;;;;;;;4908906;29;19938;-76
2022/08/13 06:35:45;;;;;;;;;;;;;;;;;;4916682;29;19931;-76
2022/08/13 06:38:16;;;;;;;;;;;;;;;;;;4922943;29;19959;-77
2022/08/13 06:40:48;;;;;;;;;;;;;;;;;;4915065;29;20569;-76
2022/08/13 06:43:17;;;;;;;;;;;;;;;;;;4908912;29;19938;-76
2022/08/13 06:45:47;;;;;;;;;;;;;;;;;;4911982;29;20467;-75
2022/08/13 06:48:14;;;;;;;;;;;;;;;;;;4928677;29;19927;-76
2022/08/13 06:50:42;;;;;;;;;;;;;;;;;;4928775;29;19930;-76
2022/08/13 06:53:11;;;;;;;;;;;;;;;;;;4927478;29;19927;-76
2022/08/13 06:55:59;;;;;;;;;;;;;;;;;;4928405;29;20395;-76
2022/08/13 06:58:46;;;;;;;;;;;;;;;;;;4929947;29;19986;-76
2022/08/13 07:01:14;;;;;;;;;;;;;;;;;;4932240;29;19933;-76
2022/08/13 07:03:42;;;;;;;;;;;;;;;;;;4914920;29;19937;-76
2022/08/13 07:06:23;;;;;;;;;;;;;;;;;;4932058;29;19930;-76
2022/08/13 07:08:53;;;;;;;;;;;;;;;;;;4932284;29;19930;-76
2022/08/13 07:11:24;;;;;;;;;;;;;;;;;;4930735;29;19930;-77
2022/08/13 07:14:05;;;;;;;;;;;;;;;;;;4931807;29;19931;-77
2022/08/13 07:16:35;;;;;;;;;;;;;;;;;;4900761;23;19932;-68
2022/08/13 07:19:03;;;;;;;;;;;;;;;;;;4887574;29;19942;-68
2022/08/13 07:21:30;;;;;;;;;;;;;;;;;;4893661;29;19931;-69
2022/08/13 07:24:08;;;;;;;;;;;;;;;;;;4893124;29;20022;-68
2022/08/13 07:26:59;;;;;;;;;;;;;;;;;;4892979;29;19932;-69
2022/08/13 07:29:26;;;;;;;;;;;;;;;;;;4893203;29;20399;-69
2022/08/13 07:31:53;;;;;;;;;;;;;;;;;;4907254;29;19928;-68
2022/08/13 07:34:32;;;;;;;;;;;;;;;;;;4892989;29;19933;-69
2022/08/13 07:37:00;;;;;;;;;;;;;;;;;;4892694;29;19958;-69
2022/08/13 07:39:27;;;;;;;;;;;;;;;;;;4907114;29;19934;-69
2022/08/13 07:41:54;;;;;;;;;;;;;;;;;;4888931;29;19943;-69
2022/08/13 07:44:29;;;;;;;;;;;;;;;;;;4889567;29;20128;-68
2022/08/13 07:47:01;;;;;;;;;;;;;;;;;;4900106;29;19928;-68
2022/08/13 07:49:28;;;;;;;;;;;;;;;;;;4892501;29;20376;-69
2022/08/13 07:52:12;;;;;;;;;;;;;;;;;;4891733;29;20462;-69
2022/08/13 07:54:40;;;;;;;;;;;;;;;;;;4892387;29;20384;-69
2022/08/13 07:57:07;;;;;;;;;;;;;;;;;;4892164;29;19967;-69
2022/08/13 07:59:33;;;;;;;;;;;;;;;;;;4892879;29;19920;-69
2022/08/13 08:02:20;;;;;;;;;;;;;;;;;;4892379;29;19935;-69
2022/08/13 08:04:50;;;;;;;;;;;;;;;;;;4891752;29;20449;-69
2022/08/13 08:07:21;;;;;;;;;;;;;;;;;;4891999;29;20140;-69
2022/08/13 08:09:48;;;;;;;;;;;;;;;;;;4891304;29;19938;-70
2022/08/13 08:12:32;;;;;;;;;;;;;;;;;;4891918;29;19935;-70
2022/08/13 08:15:00;;;;;;;;;;;;;;;;;;4889297;29;19931;-69
2022/08/13 08:17:27;;;;;;;;;;;;;;;;;;4903375;29;20046;-69
2022/08/13 08:20:15;;;;;;;;;;;;;;;;;;4892373;29;20415;-70
2022/08/13 08:23:02;;;;;;;;;;;;;;;;;;4892474;29;19935;-69
2022/08/13 08:25:29;;;;;;;;;;;;;;;;;;4892202;29;20014;-68
2022/08/13 08:28:00;;;;;;;;;;;;;;;;;;4892420;29;19995;-68
2022/08/13 08:30:48;;;;;;;;;;;;;;;;;;4891389;29;19931;-68
2022/08/13 08:33:17;;;;;;;;;;;;;;;;;;4905996;29;20035;-68
2022/08/13 08:36:04;;;;;;;;;;;;;;;;;;4891762;29;19935;-68
2022/08/13 08:44:20;;;;;;;;;;;;;;;;;;4892079;29;19931;-68
2022/08/13 08:46:48;;;;;;;;;;;;;;;;;;4882227;29;19938;-69
2022/08/13 08:49:15;;;;;;;;;;;;;;;;;;4890882;29;19932;-69
2022/08/13 08:52:01;;;;;;;;;;;;;;;;;;4891005;29;20721;-69
2022/08/13 08:54:29;;;;;;;;;;;;;;;;;;4891627;29;19927;-69
2022/08/13 08:56:58;;;;;;;;;;;;;;;;;;4890768;29;19949;-69
2022/08/13 08:59:25;;;;;;;;;;;;;;;;;;4891279;29;19939;-69
2022/08/13 09:01:55;;;;;;;;;;;;;;;;;;4889620;29;19936;-70
2022/08/13 09:04:28;;;;;;;;;;;;;;;;;;4904171;29;19927;-70
2022/08/13 09:07:16;;;;;;;;;;;;;;;;;;4890543;29;19939;-69
2022/08/13 09:09:43;;;;;;;;;;;;;;;;;;4891008;29;20299;-69
2022/08/13 09:12:11;;;;;;;;;;;;;;;;;;4889560;29;20418;-69
2022/08/13 09:14:39;;;;;;;;;;;;;;;;;;4890270;29;19932;-69
2022/08/13 09:17:06;;;;;;;;;;;;;;;;;;4889071;29;19937;-70
2022/08/13 09:19:41;;;;;;;;;;;;;;;;;;4889539;29;20014;-70
2022/08/13 09:22:15;;;;;;;;;;;;;;;;;;4903356;29;19942;-69
2022/08/13 09:24:47;;;;;;;;;;;;;;;;;;4876577;29;19928;-69
2022/08/13 09:27:16;;;;;;;;;;;;;;;;;;4871957;29;19935;-69
2022/08/13 09:29:43;;;;;;;;;;;;;;;;;;4876403;29;19962;-69
2022/08/13 09:32:15;;;;;;;;;;;;;;;;;;4877823;29;20416;-69
2022/08/13 09:34:58;;;;;;;;;;;;;;;;;;4886553;29;19939;-69
2022/08/13 09:37:25;;;;;;;;;;;;;;;;;;4890117;29;20030;-69
2022/08/13 09:39:52;;;;;;;;;;;;;;;;;;4890335;29;20403;-69
2022/08/13 09:42:23;;;;;;;;;;;;;;;;;;4890602;29;19936;-69
2022/08/13 09:44:51;;;;;;;;;;;;;;;;;;4890588;29;20342;-69
2022/08/13 09:47:18;;;;;;;;;;;;;;;;;;4889691;29;19928;-69
2022/08/13 09:50:08;;;;;;;;;;;;;;;;;;4871859;29;20381;-69
2022/08/13 09:52:35;;;;;;;;;;;;;;;;;;4871845;29;19932;-69
2022/08/13 09:55:04;;;;;;;;;;;;;;;;;;4871678;29;20018;-69
2022/08/13 09:57:31;;;;;;;;;;;;;;;;;;4877202;29;19938;-69
2022/08/13 10:00:00;;;;;;;;;;;;;;;;;;4883417;29;19932;-69
2022/08/13 10:02:27;;;;;;;;;;;;;;;;;;4871287;29;20377;-70
2022/08/13 10:04:55;;;;;;;;;;;;;;;;;;4870648;29;20364;-69
2022/08/13 10:07:22;;;;;;;;;;;;;;;;;;4883580;29;20415;-70
2022/08/13 10:09:49;;;;;;;;;;;;;;;;;;4889728;29;19934;-69
2022/08/13 10:12:37;;;;;;;;;;;;;;;;;;4890378;29;19939;-69
2022/08/13 10:15:05;;;;;;;;;;;;;;;;;;4887237;29;19932;-69
2022/08/13 10:17:32;;;;;;;;;;;;;;;;;;4904249;29;20002;-69
2022/08/13 10:20:09;;;;;;;;;;;;;;;;;;4884804;29;19931;-69
2022/08/13 10:22:36;;;;;;;;;;;;;;;;;;4890326;29;19931;-69
2022/08/13 10:25:03;;;;;;;;;;;;;;;;;;4890551;29;19935;-69
2022/08/13 10:27:30;;;;;;;;;;;;;;;;;;4889626;29;19931;-69
2022/08/13 10:30:14;;;;;;;;;;;;;;;;;;4890582;29;19931;-69
2022/08/13 10:33:01;;;;;;;;;;;;;;;;;;4891030;29;19931;-69
2022/08/13 10:35:29;;;;;;;;;;;;;;;;;;4894647;29;19931;-70
2022/08/13 10:37:57;;;;;;;;;;;;;;;;;;4893679;29;20379;-69
2022/08/13 10:40:26;;;;;;;;;;;;;;;;;;4893893;29;20387;-70
2022/08/13 10:43:04;;;;;;;;;;;;;;;;;;4894053;29;19932;-69
2022/08/13 10:45:32;;;;;;;;;;;;;;;;;;4906159;29;19988;-69
2022/08/13 10:48:01;;;;;;;;;;;;;;;;;;4893264;29;19938;-69
2022/08/13 10:50:31;;;;;;;;;;;;;;;;;;4893824;29;19979;-69
2022/08/13 10:52:58;;;;;;;;;;;;;;;;;;4893990;29;19935;-69
2022/08/13 10:55:25;;;;;;;;;;;;;;;;;;4894226;29;19931;-69
2022/08/13 10:57:53;;;;;;;;;;;;;;;;;;4893552;29;19982;-69
2022/08/13 11:00:27;;;;;;;;;;;;;;;;;;4892684;29;20308;-69
2022/08/13 11:02:54;;;;;;;;;;;;;;;;;;4892475;29;19931;-69
2022/08/13 11:05:22;;;;;;;;;;;;;;;;;;4893570;29;19935;-69
2022/08/13 11:07:50;;;;;;;;;;;;;;;;;;4893261;29;20375;-69
2022/08/13 11:10:18;;;;;;;;;;;;;;;;;;4893167;29;19931;-69
2022/08/13 11:12:50;;;;;;;;;;;;;;;;;;4907608;29;19996;-69
2022/08/13 11:15:21;;;;;;;;;;;;;;;;;;4905015;29;20018;-69
2022/08/13 11:17:48;;;;;;;;;;;;;;;;;;4902290;29;20000;-69
2022/08/13 11:20:20;;;;;;;;;;;;;;;;;;4893665;29;19936;-69
2022/08/13 11:22:50;;;;;;;;;;;;;;;;;;4893332;29;19931;-69
2022/08/13 11:25:17;;;;;;;;;;;;;;;;;;4893419;29;20005;-69
2022/08/13 11:28:05;;;;;;;;;;;;;;;;;;4892390;29;19927;-68
2022/08/13 11:30:32;;;;;;;;;;;;;;;;;;4893439;29;20016;-69
2022/08/13 11:33:02;;;;;;;;;;;;;;;;;;4893612;29;19938;-69
2022/08/13 11:35:32;;;;;;;;;;;;;;;;;;4893692;29;20098;-68
2022/08/13 11:37:59;;;;;;;;;;;;;;;;;;4893133;29;19931;-70
2022/08/13 11:40:26;;;;;;;;;;;;;;;;;;4893680;29;20408;-69
2022/08/13 11:42:57;;;;;;;;;;;;;;;;;;4908303;29;19938;-70
2022/08/13 11:45:36;;;;;;;;;;;;;;;;;;4892856;29;19931;-69
2022/08/13 11:48:10;;;;;;;;;;;;;;;;;;4894072;29;19943;-69
2022/08/13 11:50:37;;;;;;;;;;;;;;;;;;4893503;29;19975;-71
2022/08/13 11:53:05;;;;;;;;;;;;;;;;;;4892493;29;20033;-69
2022/08/13 11:55:35;;;;;;;;;;;;;;;;;;4908053;29;20038;-69
2022/08/13 11:58:22;;;;;;;;;;;;;;;;;;4892650;29;20030;-70
2022/08/13 12:00:59;;;;;;;;;;;;;;;;;;4892493;29;19935;-69
2022/08/13 12:03:26;;;;;;;;;;;;;;;;;;4892470;29;19939;-70
2022/08/13 12:06:03;;;;;;;;;;;;;;;;;;4891951;29;20031;-69
2022/08/13 12:08:31;;;;;;;;;;;;;;;;;;4891856;29;19932;-69
2022/08/13 12:11:18;;;;;;;;;;;;;;;;;;4892625;29;19927;-69
2022/08/13 12:13:45;;;;;;;;;;;;;;;;;;4892802;29;19939;-69
2022/08/13 12:16:18;;;;;;;;;;;;;;;;;;4890321;29;20278;-69
2022/08/13 12:18:45;;;;;;;;;;;;;;;;;;4891764;29;20388;-69
2022/08/13 12:21:33;;;;;;;;;;;;;;;;;;4892472;29;19938;-69
2022/08/13 12:24:00;;;;;;;;;;;;;;;;;;4892756;29;19931;-69
2022/08/13 12:26:28;;;;;;;;;;;;;;;;;;4892261;29;20026;-69
2022/08/13 12:28:57;;;;;;;;;;;;;;;;;;4891966;29;20448;-69
2022/08/13 12:31:24;;;;;;;;;;;;;;;;;;4890788;29;19982;-70
2022/08/13 12:33:51;;;;;;;;;;;;;;;;;;4892002;29;19932;-70
2022/08/13 12:36:18;;;;;;;;;;;;;;;;;;4896182;29;20379;-70
2022/08/13 12:38:46;;;;;;;;;;;;;;;;;;4908870;29;19934;-70
2022/08/13 12:41:25;;;;;;;;;;;;;;;;;;4910923;29;19934;-70
2022/08/13 12:44:05;;;;;;;;;;;;;;;;;;4910900;29;19931;-69
2022/08/13 12:46:52;;;;;;;;;;;;;;;;;;4892058;29;19928;-70
2022/08/13 12:49:19;;;;;;;;;;;;;;;;;;4891110;29;19938;-69
2022/08/13 12:51:47;;;;;;;;;;;;;;;;;;4891854;29;19932;-69
2022/08/13 12:54:21;;;;;;;;;;;;;;;;;;4891298;29;19987;-69
2022/08/13 12:57:06;;;;;;;;;;;;;;;;;;4890267;29;20348;-69
2022/08/13 12:59:50;;;;;;;;;;;;;;;;;;4891605;29;20026;-69
2022/08/13 13:02:23;;;;;;;;;;;;;;;;;;4891824;29;19975;-70
2022/08/13 13:04:51;;;;;;;;;;;;;;;;;;4891420;29;20331;-70
2022/08/13 13:07:38;;;;;;;;;;;;;;;;;;4891625;29;19931;-70
2022/08/13 13:10:25;;;;;;;;;;;;;;;;;;4890163;29;19932;-70
2022/08/13 13:12:52;;;;;;;;;;;;;;;;;;4890393;29;19950;-70
2022/08/13 13:15:20;;;;;;;;;;;;;;;;;;4904743;23;20018;-84
2022/08/13 13:17:54;;;;;;;;;;;;;;;;;;4887770;29;20308;-84
2022/08/13 13:20:41;;;;;;;;;;;;;;;;;;4891167;29;19951;-83
2022/08/13 13:23:09;;;;;;;;;;;;;;;;;;4892889;29;19974;-83
2022/08/13 13:25:36;;;;;;;;;;;;;;;;;;4893503;29;19939;-83
2022/08/13 13:28:04;;;;;;;;;;;;;;;;;;4892488;29;19982;-83
2022/08/13 13:30:31;;;;;;;;;;;;;;;;;;4892794;29;19931;-83
2022/08/13 13:32:59;;;;;;;;;;;;;;;;;;4893959;29;20225;-83
2022/08/13 13:35:26;;;;;;;;;;;;;;;;;;4894803;29;19938;-83
2022/08/13 13:38:13;;;;;;;;;;;;;;;;;;4894040;29;19931;-82
2022/08/13 13:40:40;;;;;;;;;;;;;;;;;;4893581;29;20204;-83
2022/08/13 13:43:11;;;;;;;;;;;;;;;;;;4892266;29;20006;-83
2022/08/13 13:45:47;;;;;;;;;;;;;;;;;;4893433;29;20349;-83
2022/08/13 13:48:15;;;;;;;;;;;;;;;;;;4892714;29;19991;-84
2022/08/13 13:50:42;;;;;;;;;;;;;;;;;;4893274;29;19973;-83
2022/08/13 13:53:09;;;;;;;;;;;;;;;;;;4892096;29;19932;-82
2022/08/13 13:55:51;;;;;;;;;;;;;;;;;;4892354;29;20349;-83
2022/08/13 13:58:19;;;;;;;;;;;;;;;;;;4892924;29;19927;-82
2022/08/13 14:01:06;;;;;;;;;;;;;;;;;;4891763;29;20297;-82
2022/08/13 14:03:34;;;;;;;;;;;;;;;;;;4897594;29;19927;-82
2022/08/13 14:06:02;;;;;;;;;;;;;;;;;;4900711;29;19931;-84
2022/08/13 14:08:29;;;;;;;;;;;;;;;;;;4896528;29;19928;-82
2022/08/13 14:10:56;;;;;;;;;;;;;;;;;;4897856;29;20023;-82
2022/08/13 14:13:24;;;;;;;;;;;;;;;;;;4896496;29;20198;-83
2022/08/13 14:16:06;;;;;;;;;;;;;;;;;;4896764;29;20348;-83
2022/08/13 14:18:34;;;;;;;;;;;;;;;;;;4890892;29;19927;-82
2022/08/13 14:21:02;;;;;;;;;;;;;;;;;;4896735;29;19953;-82
2022/08/13 14:23:29;;;;;;;;;;;;;;;;;;4901482;29;19938;-82
2022/08/13 14:26:05;;;;;;;;;;;;;;;;;;4885980;29;19972;-82
2022/08/13 14:28:35;;;;;;;;;;;;;;;;;;4909699;29;19938;-82
2022/08/13 14:31:03;;;;;;;;;;;;;;;;;;4908520;29;20407;-84
2022/08/13 14:33:31;;;;;;;;;;;;;;;;;;4904648;29;19928;-82
2022/08/13 14:36:18;;;;;;;;;;;;;;;;;;4905354;29;19928;-82
2022/08/13 14:38:55;;;;;;;;;;;;;;;;;;4903278;29;19932;-82
2022/08/13 14:41:22;;;;;;;;;;;;;;;;;;4901219;29;19931;-82
2022/08/13 14:43:50;;;;;;;;;;;;;;;;;;4898633;29;19931;-82
2022/08/13 14:46:28;;;;;;;;;;;;;;;;;;4898770;29;19931;-82
2022/08/13 14:48:58;;;;;;;;;;;;;;;;;;4892966;29;20412;-82
2022/08/13 14:51:27;;;;;;;;;;;;;;;;;;4897439;29;19928;-82
2022/08/13 14:53:54;;;;;;;;;;;;;;;;;;4888142;29;19931;-83
2022/08/13 14:56:22;;;;;;;;;;;;;;;;;;4879877;29;20580;-82
2022/08/13 14:58:55;;;;;;;;;;;;;;;;;;4895053;29;20026;-83
2022/08/13 15:01:23;;;;;;;;;;;;;;;;;;4898687;29;19945;-82
2022/08/13 15:03:53;;;;;;;;;;;;;;;;;;4904957;29;19938;-83
2022/08/13 15:06:21;;;;;;;;;;;;;;;;;;4905834;29;20035;-83
2022/08/13 15:08:51;;;;;;;;;;;;;;;;;;4905242;29;20003;-85
2022/08/13 15:11:18;;;;;;;;;;;;;;;;;;4909174;29;19931;-83
2022/08/13 15:13:46;;;;;;;;;;;;;;;;;;4906801;29;19938;-83
2022/08/13 15:16:24;;;;;;;;;;;;;;;;;;4908753;29;19983;-85
2022/08/13 15:18:52;;;;;;;;;;;;;;;;;;4892238;29;19932;-83
2022/08/13 15:21:20;;;;;;;;;;;;;;;;;;4904068;29;20073;-84
2022/08/13 15:23:52;;;;;;;;;;;;;;;;;;4905338;29;19955;-82
2022/08/13 15:26:19;;;;;;;;;;;;;;;;;;4909463;29;19960;-82
2022/08/13 15:28:46;;;;;;;;;;;;;;;;;;4908720;29;20033;-83
2022/08/13 15:31:15;;;;;;;;;;;;;;;;;;4903714;29;19931;-83
2022/08/13 15:33:43;;;;;;;;;;;;;;;;;;4902272;29;19980;-82
2022/08/13 15:36:13;;;;;;;;;;;;;;;;;;4898882;29;19928;-83
2022/08/13 15:38:41;;;;;;;;;;;;;;;;;;4893346;29;19935;-82
2022/08/13 15:41:09;;;;;;;;;;;;;;;;;;4896662;29;20411;-83
2022/08/13 15:43:36;;;;;;;;;;;;;;;;;;4892175;29;20264;-82
2022/08/13 15:46:08;;;;;;;;;;;;;;;;;;4895594;29;20007;-82
2022/08/13 15:48:43;;;;;;;;;;;;;;;;;;4894863;29;20259;-82
2022/08/13 15:51:10;;;;;;;;;;;;;;;;;;4893268;29;20395;-82
2022/08/13 15:53:42;;;;;;;;;;;;;;;;;;4891082;29;19935;-83
2022/08/13 15:56:09;;;;;;;;;;;;;;;;;;4893081;29;19935;-84
2022/08/13 15:58:40;;;;;;;;;;;;;;;;;;4890402;29;20413;-82
2022/08/13 16:01:09;;;;;;;;;;;;;;;;;;4904562;29;20002;-82
2022/08/13 16:03:48;;;;;;;;;;;;;;;;;;4886067;29;19947;-85
2022/08/13 16:06:20;;;;;;;;;;;;;;;;;;4901820;29;19932;-83
2022/08/13 16:08:48;;;;;;;;;;;;;;;;;;4899644;29;19931;-82
2022/08/13 16:11:19;;;;;;;;;;;;;;;;;;4905847;29;19934;-82
2022/08/13 16:14:07;;;;;;;;;;;;;;;;;;4913983;29;19931;-83
2022/08/13 16:16:42;;;;;;;;;;;;;;;;;;4903137;29;19934;-82
2022/08/13 16:19:09;;;;;;;;;;;;;;;;;;4905216;29;19931;-82
2022/08/13 16:21:57;;;;;;;;;;;;;;;;;;4906919;29;19931;-84
2022/08/13 16:24:26;;;;;;;;;;;;;;;;;;4903622;29;19931;-82
2022/08/13 16:26:54;;;;;;;;;;;;;;;;;;4893785;29;19979;-82
2022/08/13 16:29:22;;;;;;;;;;;;;;;;;;4897893;29;19931;-82
2022/08/13 16:31:50;;;;;;;;;;;;;;;;;;4894579;29;19935;-83
2022/08/13 16:34:19;;;;;;;;;;;;;;;;;;4897527;29;19937;-82
2022/08/13 16:36:47;;;;;;;;;;;;;;;;;;4893966;29;19942;-82
2022/08/13 16:39:17;;;;;;;;;;;;;;;;;;4897439;29;19974;-82
2022/08/13 16:41:46;;;;;;;;;;;;;;;;;;4895534;29;19982;-82
2022/08/13 16:44:13;;;;;;;;;;;;;;;;;;4888323;29;19935;-82
2022/08/13 16:46:50;;;;;;;;;;;;;;;;;;4892568;29;19931;-83
2022/08/13 16:49:17;;;;;;;;;;;;;;;;;;4892156;29;19927;-82
2022/08/13 16:51:47;;;;;;;;;;;;;;;;;;4898411;29;19931;-82
2022/08/13 16:54:14;;;;;;;;;;;;;;;;;;4880218;29;20031;-82
2022/08/13 16:57:04;;;;;;;;;;;;;;;;;;4888537;29;19931;-82
2022/08/13 16:59:32;;;;;;;;;;;;;;;;;;4889292;29;20261;-82
2022/08/13 17:02:05;;;;;;;;;;;;;;;;;;4893509;29;20113;-82
2022/08/13 17:10:30;;;;;;;;;;;;;;;;;;4894467;29;19971;-82
2022/08/13 17:12:57;;;;;;;;;;;;;;;;;;4893773;29;19937;-83
2022/08/13 17:15:24;;;;;;;;;;;;;;;;;;4893159;29;19928;-82
2022/08/13 17:17:52;;;;;;;;;;;;;;;;;;4893758;29;19931;-82
2022/08/13 17:20:21;;;;;;;;;;;;;;;;;;4890869;29;19938;-83
2022/08/13 17:22:48;;;;;;;;;;;;;;;;;;4889188;29;19934;-82
2022/08/13 17:25:16;;;;;;;;;;;;;;;;;;4894921;29;20301;-83
2022/08/13 17:27:44;;;;;;;;;;;;;;;;;;4886250;23;20249;-70
2022/08/13 17:30:18;;;;;;;;;;;;;;;;;;4872608;29;19939;-71
2022/08/13 17:32:45;;;;;;;;;;;;;;;;;;4882565;29;19938;-70
2022/08/13 17:35:14;;;;;;;;;;;;;;;;;;4891141;29;19935;-71
2022/08/13 17:37:43;;;;;;;;;;;;;;;;;;4890814;29;20307;-71